Time;durP1;ratioP1;P1;durP2;ratioP2;P2;SDS_P1;SDS_P2;PMS_P1;PMS_P2;Temp;Humidity;BMP_temperature;BMP_pressure;BME280_temperature;BME280_humidity;BME280_pressure;Samples;Min_cycle;Max_cycle;Signal;HPM_P1;HPM_P2
2022/04/15 10:21:51;;;;;;;;;1.60;1.60;;;;;;;;1572542;27;83518;-69
2022/04/15 10:22:38;;;;;;;;;3.00;3.00;;;;;;;;1571306;27;83405;-70
2022/04/15 10:23:24;;;;;;;;;2.60;2.60;;;;;;;;1572244;27;83261;-69
2022/04/15 10:24:09;;;;;;;;;3.00;3.00;;;;;;;;1572101;27;83577;-69
2022/04/15 10:24:55;;;;;;;;;4.00;4.00;;;;;;;;1572101;27;83370;-68
2022/04/15 10:25:44;;;;;;;;;3.50;3.50;;;;;;;;1572262;27;83627;-67
2022/04/15 10:26:33;;;;;;;;;1.40;1.40;;;;;;;;1572233;27;83361;-67
2022/04/15 10:27:23;;;;;;;;;3.80;3.80;;;;;;;;1571840;27;83410;-67
2022/04/15 10:28:08;;;;;;;;;3.00;3.00;;;;;;;;1572145;27;83350;-68
2022/04/15 10:28:54;;;;;;;;;3.00;3.00;;;;;;;;1574233;27;83300;-68
2022/04/15 10:29:39;;;;;;;;;4.50;4.50;;;;;;;;1577962;27;83370;-67
2022/04/15 10:30:24;;;;;;;;;4.00;4.00;;;;;;;;1570057;27;83405;-67
2022/04/15 10:31:11;;;;;;;;;4.00;4.00;;;;;;;;1571257;27;84542;-67
2022/04/15 10:32:09;;;;;;;;;3.00;3.00;;;;;;;;1574797;27;83297;-66
2022/04/15 10:32:56;;;;;;;;;2.40;2.40;;;;;;;;1570818;27;83437;-67
2022/04/15 10:33:43;;;;;;;;;3.80;3.80;;;;;;;;1572027;27;83392;-67
2022/04/15 10:34:42;;;;;;;;;2.00;2.00;;;;;;;;1572189;27;83110;-67
2022/04/15 10:35:28;;;;;;;;;3.20;3.20;;;;;;;;1571916;27;83462;-65
2022/04/15 10:36:15;;;;;;;;;3.20;3.20;;;;;;;;1571994;27;83455;-65
2022/04/15 10:37:01;;;;;;;;;2.80;2.80;;;;;;;;1572110;27;83551;-65
2022/04/15 10:37:47;;;;;;;;;3.00;3.00;;;;;;;;1570632;27;83696;-65
2022/04/15 10:38:32;;;;;;;;;4.00;4.00;;;;;;;;1572227;27;83382;-66
2022/04/15 10:39:22;;;;;;;;;4.50;4.50;;;;;;;;1569717;27;83430;-66
2022/04/15 10:40:26;;;;;;;;;3.20;3.20;;;;;;;;1577877;27;83465;-66
2022/04/15 10:41:14;;;;;;;;;3.00;3.00;;;;;;;;1578405;27;83413;-66
2022/04/15 10:42:01;;;;;;;;;3.00;3.00;;;;;;;;1578380;27;83304;-66
2022/04/15 10:42:47;;;;;;;;;3.00;3.00;;;;;;;;1578147;27;83675;-67
2022/04/15 10:43:32;;;;;;;;;2.50;2.50;;;;;;;;1578650;27;83758;-73
2022/04/15 10:44:24;;;;;;;;;2.00;2.00;;;;;;;;1560318;27;83771;-76
2022/04/15 10:45:24;;;;;;;;;2.40;2.40;;;;;;;;1546970;28;84233;-77
2022/04/15 10:46:13;;;;;;;;;3.00;3.00;;;;;;;;1547088;28;84459;-75
2022/04/15 10:47:11;;;;;;;;;3.00;3.00;;;;;;;;1546986;28;84031;-73
2022/04/15 10:48:01;;;;;;;;;2.00;2.00;;;;;;;;1552642;28;83860;-76
2022/04/15 10:48:47;;;;;;;;;2.00;2.00;;;;;;;;1553226;28;84576;-73
2022/04/15 10:49:33;;;;;;;;;2.00;2.00;;;;;;;;1553280;28;83489;-74
2022/04/15 10:50:19;;;;;;;;;2.40;2.40;;;;;;;;1553208;28;84194;-74
2022/04/15 10:51:23;;;;;;;;;3.00;3.00;;;;;;;;1553084;28;83970;-73
2022/04/15 10:52:21;;;;;;;;;2.80;2.80;;;;;;;;1552808;28;83962;-74
2022/04/15 10:53:17;;;;;;;;;1.40;1.40;;;;;;;;1547033;28;84030;-74
2022/04/15 10:54:20;;;;;;;;;1.20;1.20;;;;;;;;1546991;28;84021;-75
2022/04/15 10:55:07;;;;;;;;;3.80;3.80;;;;;;;;1547007;28;82996;-73
2022/04/15 10:55:52;;;;;;;;;2.60;2.60;;;;;;;;1540301;28;84175;-73
2022/04/15 10:56:56;;;;;;;;;2.00;2.00;;;;;;;;1540595;28;83759;-72
2022/04/15 10:57:43;;;;;;;;;1.80;1.80;;;;;;;;1544976;28;83208;-74
2022/04/15 10:58:29;;;;;;;;;1.40;1.40;;;;;;;;1547074;28;84536;-73
2022/04/15 11:01:51;;;;;;;;;2.20;2.20;;;;;;;;1547044;28;83857;-74
2022/04/15 11:02:40;;;;;;;;;3.00;3.00;;;;;;;;1546173;28;85753;-74
2022/04/15 11:03:27;;;;;;;;;2.20;2.20;;;;;;;;1546631;28;83221;-75
2022/04/15 11:04:12;;;;;;;;;1.60;1.60;;;;;;;;1549477;28;84525;-75
2022/04/15 11:04:58;;;;;;;;;3.00;3.00;;;;;;;;1553105;28;84188;-75
2022/04/15 11:05:43;;;;;;;;;1.00;1.00;;;;;;;;1553278;28;83972;-76
2022/04/15 11:06:28;;;;;;;;;1.75;1.75;;;;;;;;1552863;28;83890;-75
2022/04/15 11:07:24;;;;;;;;;3.00;3.00;;;;;;;;1550824;28;83667;-75
2022/04/15 11:08:11;;;;;;;;;2.20;2.20;;;;;;;;1556117;28;84654;-76
2022/04/15 11:08:56;;;;;;;;;2.00;2.00;;;;;;;;1553029;28;84131;-75
2022/04/15 11:09:41;;;;;;;;;2.00;2.00;;;;;;;;1555645;28;82987;-75
2022/04/15 11:10:45;;;;;;;;;2.00;2.00;;;;;;;;1553175;28;83267;-74
2022/04/15 11:11:35;;;;;;;;;2.00;2.00;;;;;;;;1553017;28;83577;-75
2022/04/15 11:12:35;;;;;;;;;1.60;1.60;;;;;;;;1552827;28;83087;-75
2022/04/15 11:13:24;;;;;;;;;2.40;2.40;;;;;;;;1546377;28;83553;-75
2022/04/15 11:14:13;;;;;;;;;2.00;2.00;;;;;;;;1546408;28;83501;-75
2022/04/15 11:14:59;;;;;;;;;1.80;1.80;;;;;;;;1549796;28;83256;-75
2022/04/15 11:16:02;;;;;;;;;3.00;3.00;;;;;;;;1553200;28;83336;-75
2022/04/15 11:16:48;;;;;;;;;2.00;2.00;;;;;;;;1552188;28;83262;-75
2022/04/15 11:17:38;;;;;;;;;3.80;3.80;;;;;;;;1553056;28;83342;-74
2022/04/15 11:18:23;;;;;;;;;4.60;4.60;;;;;;;;1553037;28;83504;-75
2022/04/15 11:19:11;;;;;;;;;5.00;5.00;;;;;;;;1553125;28;83250;-74
2022/04/15 11:19:56;;;;;;;;;5.20;5.20;;;;;;;;1553050;28;83205;-73
2022/04/15 11:20:42;;;;;;;;;5.00;5.00;;;;;;;;1553194;28;83411;-75
2022/04/15 11:21:39;;;;;;;;;5.50;5.50;;;;;;;;1552887;28;83197;-74
2022/04/15 11:22:25;;;;;;;;;4.60;4.60;;;;;;;;1547701;28;83467;-75
2022/04/15 11:23:11;;;;;;;;;3.80;3.80;;;;;;;;1546961;28;83246;-74
2022/04/15 11:23:58;;;;;;;;;3.60;3.60;;;;;;;;1546790;28;83530;-75
2022/04/15 11:24:43;;;;;;;;;3.20;3.20;;;;;;;;1546946;28;83169;-74
2022/04/15 11:25:29;;;;;;;;;3.00;3.00;;;;;;;;1546914;28;83343;-75
2022/04/15 11:26:15;;;;;;;;;3.00;3.00;;;;;;;;1546409;28;83317;-74
2022/04/15 11:27:03;;;;;;;;;4.00;4.00;;;;;;;;1546799;28;83434;-74
2022/04/15 11:27:48;;;;;;;;;3.00;3.00;;;;;;;;1546925;28;83205;-76
2022/04/15 11:28:34;;;;;;;;;4.75;4.75;;;;;;;;1546893;28;83173;-75
2022/04/15 11:29:19;;;;;;;;;4.00;4.00;;;;;;;;1546883;28;83462;-76
2022/04/15 11:30:10;;;;;;;;;5.00;5.00;;;;;;;;1546795;28;83353;-75
2022/04/15 11:30:56;;;;;;;;;3.80;3.80;;;;;;;;1546831;28;83376;-74
2022/04/15 11:31:42;;;;;;;;;4.00;4.00;;;;;;;;1550459;28;83309;-76
2022/04/15 11:32:27;;;;;;;;;4.00;4.00;;;;;;;;1549974;28;83513;-76
2022/04/15 11:33:12;;;;;;;;;3.00;3.00;;;;;;;;1536082;28;85563;-75
2022/04/15 11:34:08;;;;;;;;;2.25;2.25;;;;;;;;1536248;28;83674;-75
2022/04/15 11:35:01;;;;;;;;;1.60;1.60;;;;;;;;1539796;28;83453;-75
2022/04/15 11:35:47;;;;;;;;;1.00;1.00;;;;;;;;1536170;28;85675;-75
2022/04/15 11:36:33;;;;;;;;;2.00;2.00;;;;;;;;1536316;28;83464;-76
2022/04/15 11:37:18;;;;;;;;;1.20;1.20;;;;;;;;1543328;28;83473;-75
2022/04/15 11:38:13;;;;;;;;;2.75;2.75;;;;;;;;1548859;28;83385;-75
2022/04/15 11:39:01;;;;;;;;;2.00;2.00;;;;;;;;1548934;28;83501;-74
2022/04/15 11:39:47;;;;;;;;;2.40;2.40;;;;;;;;1548921;28;83298;-73
2022/04/15 11:40:34;;;;;;;;;3.00;3.00;;;;;;;;1548997;28;83828;-74
2022/04/15 11:41:20;;;;;;;;;3.80;3.80;;;;;;;;1548496;28;83503;-73
2022/04/15 11:42:10;;;;;;;;;4.00;4.00;;;;;;;;1548852;28;83455;-73
2022/04/15 11:42:56;;;;;;;;;7.00;7.00;;;;;;;;1548510;28;83946;-74
2022/04/15 11:43:41;;;;;;;;;4.00;4.00;;;;;;;;1548997;28;83286;-73
2022/04/15 11:44:30;;;;;;;;;2.50;2.50;;;;;;;;1548676;28;83709;-72
2022/04/15 11:45:15;;;;;;;;;3.80;3.80;;;;;;;;1548631;28;83770;-74
2022/04/15 11:46:00;;;;;;;;;3.00;3.00;;;;;;;;1548609;28;83520;-73
2022/04/15 11:46:51;;;;;;;;;5.25;5.25;;;;;;;;1546541;28;83768;-73
2022/04/15 11:47:36;;;;;;;;;3.00;3.00;;;;;;;;1548634;28;83840;-72
2022/04/15 11:48:22;;;;;;;;;2.00;2.00;;;;;;;;1548303;28;83697;-73
2022/04/15 11:49:15;;;;;;;;;4.00;4.00;;;;;;;;1548529;28;83414;-73
2022/04/15 11:50:00;;;;;;;;;2.60;2.60;;;;;;;;1548695;28;83518;-73
2022/04/15 11:50:46;;;;;;;;;4.00;4.00;;;;;;;;1548738;28;83442;-73
2022/04/15 11:51:31;;;;;;;;;2.00;2.00;;;;;;;;1547929;28;83719;-73
2022/04/15 11:52:20;;;;;;;;;3.25;3.25;;;;;;;;1542598;28;83516;-73
2022/04/15 11:53:06;;;;;;;;;2.40;2.40;;;;;;;;1542561;28;83359;-73
2022/04/15 11:53:54;;;;;;;;;11.75;11.75;;;;;;;;1542477;28;83346;-73
2022/04/15 11:54:39;;;;;;;;;0.00;0.00;;;;;;;;1550115;28;83536;-73
2022/04/15 11:55:27;;;;;;;;;0.25;0.25;;;;;;;;1548101;28;83831;-73
2022/04/15 11:56:12;;;;;;;;;1.00;1.00;;;;;;;;1548675;28;83363;-73
2022/04/15 11:56:58;;;;;;;;;3.75;3.75;;;;;;;;1548558;28;83318;-73
2022/04/15 11:57:44;;;;;;;;;1.60;1.60;;;;;;;;1548736;28;84188;-72
2022/04/15 11:58:33;;;;;;;;;1.25;1.25;;;;;;;;1548693;28;84037;-73
2022/04/15 11:59:18;;;;;;;;;7.00;7.00;;;;;;;;1548549;28;83991;-73
2022/04/15 12:00:04;;;;;;;;;4.00;4.00;;;;;;;;1548559;28;84069;-72
2022/04/15 12:00:49;;;;;;;;;1.75;1.75;;;;;;;;1548629;28;82929;-73
2022/04/15 12:01:36;;;;;;;;;3.00;3.00;;;;;;;;1545157;28;83843;-73
2022/04/15 12:02:23;;;;;;;;;0.60;0.60;;;;;;;;1535687;28;83431;-73
2022/04/15 12:03:11;;;;;;;;;2.00;2.00;;;;;;;;1535735;28;84096;-73
2022/04/15 12:03:56;;;;;;;;;2.00;2.00;;;;;;;;1538569;28;83707;-73
2022/04/15 12:04:55;;;;;;;;;3.00;3.00;;;;;;;;1542604;28;83087;-73
2022/04/15 12:05:41;;;;;;;;;1.40;1.40;;;;;;;;1542525;28;83997;-73
2022/04/15 12:06:27;;;;;;;;;1.00;1.00;;;;;;;;1542195;28;83839;-73
2022/04/15 12:07:13;;;;;;;;;3.00;3.00;;;;;;;;1542342;28;82902;-72
2022/04/15 12:07:58;;;;;;;;;1.00;1.00;;;;;;;;1543777;28;84548;-74
2022/04/15 12:08:44;;;;;;;;;1.75;1.75;;;;;;;;1548767;28;83869;-72
2022/04/15 12:09:29;;;;;;;;;3.00;3.00;;;;;;;;1548425;28;83283;-73
2022/04/15 12:10:15;;;;;;;;;2.00;2.00;;;;;;;;1548125;28;83642;-72
2022/04/15 12:11:00;;;;;;;;;2.00;2.00;;;;;;;;1548282;28;84039;-73
2022/04/15 12:11:46;;;;;;;;;4.00;4.00;;;;;;;;1548593;28;84107;-73
2022/04/15 12:12:31;;;;;;;;;5.00;5.00;;;;;;;;1548656;28;83224;-73
2022/04/15 12:13:17;;;;;;;;;3.00;3.00;;;;;;;;1548490;28;84510;-73
2022/04/15 12:14:03;;;;;;;;;7.60;7.60;;;;;;;;1548532;28;83062;-73
2022/04/15 12:14:53;;;;;;;;;10.60;10.60;;;;;;;;1548495;28;84059;-73
2022/04/15 12:15:39;;;;;;;;;4.60;4.60;;;;;;;;1548469;28;83361;-73
2022/04/15 12:16:24;;;;;;;;;1.00;1.00;;;;;;;;1546148;28;84053;-73
2022/04/15 12:17:11;;;;;;;;;1.80;1.80;;;;;;;;1551172;28;86209;-73
2022/04/15 12:17:57;;;;;;;;;1.80;1.80;;;;;;;;1548566;28;83197;-74
2022/04/15 12:18:42;;;;;;;;;2.00;2.00;;;;;;;;1548557;28;83282;-73
2022/04/15 12:19:27;;;;;;;;;1.50;1.50;;;;;;;;1548512;28;83456;-73
2022/04/15 12:20:14;;;;;;;;;1.00;1.00;;;;;;;;1548376;28;83456;-74
2022/04/15 12:20:59;;;;;;;;;0.60;0.60;;;;;;;;1548078;28;83529;-74
2022/04/15 12:21:46;;;;;;;;;1.00;1.00;;;;;;;;1543181;28;83131;-73
2022/04/15 12:22:31;;;;;;;;;2.00;2.00;;;;;;;;1542439;28;83169;-73
2022/04/15 12:23:16;;;;;;;;;2.25;2.25;;;;;;;;1542368;28;83478;-74
2022/04/15 12:24:01;;;;;;;;;1.00;1.00;;;;;;;;1546084;28;83282;-77
2022/04/15 12:24:46;;;;;;;;;1.50;1.50;;;;;;;;1548031;28;83045;-75
2022/04/15 12:26:46;;;;;;;;;2.00;2.00;;;;;;;;1544589;28;83377;-73
2022/04/15 12:27:34;;;;;;;;;1.00;1.00;;;;;;;;1544738;28;83581;-73
2022/04/15 12:30:34;;;;;;;;;1.60;1.60;;;;;;;;1548276;28;83604;-73
2022/04/15 12:31:26;;;;;;;;;0.00;0.00;;;;;;;;1547351;28;83547;-73
2022/04/15 12:32:22;;;;;;;;;1.80;1.80;;;;;;;;1548107;28;83498;-73
2022/04/15 12:33:08;;;;;;;;;1.00;1.00;;;;;;;;1548495;28;83147;-73
2022/04/15 12:33:54;;;;;;;;;1.60;1.60;;;;;;;;1548477;28;83416;-73
2022/04/15 12:34:39;;;;;;;;;3.00;3.00;;;;;;;;1548488;28;83427;-72
2022/04/15 12:35:24;;;;;;;;;0.50;0.50;;;;;;;;1548394;28;83480;-73
2022/04/15 12:36:09;;;;;;;;;1.00;1.00;;;;;;;;1548229;28;83530;-73
2022/04/15 12:36:55;;;;;;;;;0.25;0.25;;;;;;;;1548534;28;83294;-73
2022/04/15 12:37:41;;;;;;;;;0.00;0.00;;;;;;;;1548499;28;83381;-73
2022/04/15 12:38:27;;;;;;;;;1.00;1.00;;;;;;;;1548444;28;83472;-73
2022/04/15 12:39:13;;;;;;;;;1.00;1.00;;;;;;;;1547770;28;84099;-73
2022/04/15 12:40:00;;;;;;;;;1.00;1.00;;;;;;;;1551186;28;83183;-73
2022/04/15 12:40:45;;;;;;;;;1.60;1.60;;;;;;;;1548662;28;83344;-73
2022/04/15 12:41:38;;;;;;;;;0.50;0.50;;;;;;;;1546231;28;83384;-74
2022/04/15 12:42:27;;;;;;;;;0.00;0.00;;;;;;;;1548198;28;83399;-73
2022/04/15 12:43:13;;;;;;;;;0.60;0.60;;;;;;;;1548236;28;83340;-73
2022/04/15 12:44:17;;;;;;;;;0.25;0.25;;;;;;;;1548346;28;83898;-73
2022/04/15 12:45:05;;;;;;;;;0.80;0.80;;;;;;;;1547416;28;83497;-73
2022/04/15 12:45:53;;;;;;;;;1.00;1.00;;;;;;;;1548429;28;83310;-72
2022/04/15 12:46:38;;;;;;;;;1.00;1.00;;;;;;;;1543069;28;83568;-73
2022/04/15 12:47:24;;;;;;;;;0.00;0.00;;;;;;;;1542333;28;83395;-73
2022/04/15 12:48:10;;;;;;;;;2.20;2.20;;;;;;;;1535476;28;83874;-73
2022/04/15 12:48:56;;;;;;;;;1.60;1.60;;;;;;;;1535725;28;83371;-72
2022/04/15 12:49:41;;;;;;;;;0.00;0.00;;;;;;;;1538000;28;84031;-73
2022/04/15 12:50:31;;;;;;;;;1.00;1.00;;;;;;;;1542063;28;83531;-73
2022/04/15 12:51:17;;;;;;;;;1.20;1.20;;;;;;;;1535454;28;85099;-75
2022/04/15 12:52:16;;;;;;;;;1.00;1.00;;;;;;;;1535701;28;83346;-75
2022/04/15 12:53:21;;;;;;;;;0.00;0.00;;;;;;;;1539844;28;83880;-75
2022/04/15 12:54:06;;;;;;;;;0.40;0.40;;;;;;;;1542138;28;83727;-75
2022/04/15 12:54:54;;;;;;;;;1.00;1.00;;;;;;;;1542221;28;83634;-75
2022/04/15 12:55:39;;;;;;;;;2.00;2.00;;;;;;;;1542363;28;83514;-74
2022/04/15 12:56:24;;;;;;;;;1.00;1.00;;;;;;;;1546055;28;83416;-75
2022/04/15 12:57:16;;;;;;;;;0.00;0.00;;;;;;;;1548397;28;83665;-75
2022/04/15 12:58:02;;;;;;;;;1.00;1.00;;;;;;;;1548316;28;83363;-75
2022/04/15 12:58:53;;;;;;;;;0.00;0.00;;;;;;;;1548484;28;83716;-74
2022/04/15 12:59:39;;;;;;;;;0.40;0.40;;;;;;;;1548322;28;83751;-75
2022/04/15 13:00:24;;;;;;;;;0.75;0.75;;;;;;;;1548365;28;83422;-75
2022/04/15 13:01:10;;;;;;;;;1.00;1.00;;;;;;;;1545715;28;83617;-72
2022/04/15 13:01:56;;;;;;;;;1.00;1.00;;;;;;;;1548246;28;83519;-74
2022/04/15 13:02:41;;;;;;;;;1.00;1.00;;;;;;;;1548476;28;84095;-75
2022/04/15 13:03:27;;;;;;;;;1.50;1.50;;;;;;;;1550970;28;83527;-75
2022/04/15 13:04:16;;;;;;;;;0.20;0.20;;;;;;;;1548277;28;83243;-74
2022/04/15 13:05:01;;;;;;;;;0.20;0.20;;;;;;;;1548348;28;84128;-75
2022/04/15 13:05:47;;;;;;;;;0.00;0.00;;;;;;;;1548334;28;83881;-74
2022/04/15 13:06:32;;;;;;;;;1.00;1.00;;;;;;;;1548288;28;83985;-75
2022/04/15 13:07:18;;;;;;;;;0.00;0.00;;;;;;;;1548075;28;84437;-75
2022/04/15 13:08:03;;;;;;;;;0.00;0.00;;;;;;;;1546303;28;83955;-75
2022/04/15 13:08:49;;;;;;;;;0.00;0.00;;;;;;;;1547554;28;84539;-74
2022/04/15 13:09:35;;;;;;;;;1.00;1.00;;;;;;;;1548235;28;84234;-75
2022/04/15 13:10:24;;;;;;;;;1.00;1.00;;;;;;;;1548278;28;84000;-75
2022/04/15 13:11:09;;;;;;;;;0.00;0.00;;;;;;;;1548182;28;83197;-78
2022/04/15 13:11:55;;;;;;;;;0.25;0.25;;;;;;;;1548391;28;84353;-79
2022/04/15 13:12:40;;;;;;;;;0.75;0.75;;;;;;;;1548243;28;84050;-79
2022/04/15 13:13:25;;;;;;;;;0.00;0.00;;;;;;;;1547680;28;84461;-79
2022/04/15 13:14:10;;;;;;;;;0.75;0.75;;;;;;;;1548314;28;83923;-78
2022/04/15 13:14:56;;;;;;;;;0.00;0.00;;;;;;;;1548268;28;83881;-79
2022/04/15 13:15:41;;;;;;;;;0.75;0.75;;;;;;;;1548321;28;84104;-79
2022/04/15 13:16:27;;;;;;;;;1.25;1.25;;;;;;;;1548303;28;84090;-78
2022/04/15 13:17:12;;;;;;;;;0.75;0.75;;;;;;;;1548166;28;83892;-79
2022/04/15 13:17:58;;;;;;;;;1.25;1.25;;;;;;;;1548355;28;83952;-79
2022/04/15 13:18:43;;;;;;;;;0.00;0.00;;;;;;;;1548353;28;83138;-79
2022/04/15 13:19:28;;;;;;;;;0.00;0.00;;;;;;;;1548215;28;83866;-79
2022/04/15 13:20:13;;;;;;;;;0.00;0.00;;;;;;;;1548330;28;83960;-79
2022/04/15 13:20:59;;;;;;;;;0.00;0.00;;;;;;;;1548321;28;84044;-79
2022/04/15 13:21:44;;;;;;;;;0.75;0.75;;;;;;;;1548101;28;85031;-78
2022/04/15 13:22:29;;;;;;;;;0.00;0.00;;;;;;;;1547802;28;84221;-77
2022/04/15 13:23:15;;;;;;;;;0.00;0.00;;;;;;;;1536864;28;84308;-77
2022/04/15 13:24:00;;;;;;;;;0.00;0.00;;;;;;;;1535565;28;84416;-78
2022/04/15 13:24:45;;;;;;;;;1.00;1.00;;;;;;;;1540608;28;83807;-79
2022/04/15 13:25:31;;;;;;;;;0.75;0.75;;;;;;;;1545130;28;83307;-79
2022/04/15 13:26:16;;;;;;;;;0.00;0.00;;;;;;;;1548294;28;83492;-79
2022/04/15 13:27:02;;;;;;;;;1.00;1.00;;;;;;;;1548243;28;83630;-79
2022/04/15 13:27:47;;;;;;;;;0.00;0.00;;;;;;;;1548404;28;83678;-79
2022/04/15 13:28:33;;;;;;;;;0.00;0.00;;;;;;;;1548025;28;83555;-79
2022/04/15 13:29:18;;;;;;;;;0.50;0.50;;;;;;;;1548273;28;83290;-80
2022/04/15 13:30:03;;;;;;;;;1.00;1.00;;;;;;;;1548185;28;83473;-80
2022/04/15 13:30:49;;;;;;;;;0.00;0.00;;;;;;;;1548374;28;83692;-80
2022/04/15 13:31:36;;;;;;;;;0.00;0.00;;;;;;;;1548183;28;83416;-79
2022/04/15 13:32:21;;;;;;;;;1.00;1.00;;;;;;;;1548279;28;83506;-80
2022/04/15 13:33:07;;;;;;;;;0.00;0.00;;;;;;;;1548307;28;82958;-80
2022/04/15 13:33:53;;;;;;;;;0.00;0.00;;;;;;;;1548419;28;83123;-80
2022/04/15 13:34:38;;;;;;;;;1.00;1.00;;;;;;;;1548311;28;83124;-79
2022/04/15 13:35:23;;;;;;;;;0.00;0.00;;;;;;;;1548313;28;83476;-79
2022/04/15 13:36:08;;;;;;;;;0.00;0.00;;;;;;;;1548142;28;82999;-79
2022/04/15 13:36:53;;;;;;;;;0.00;0.00;;;;;;;;1548062;28;83127;-79
2022/04/15 13:37:39;;;;;;;;;0.00;0.00;;;;;;;;1547885;28;83420;-79
2022/04/15 13:38:24;;;;;;;;;0.00;0.00;;;;;;;;1548048;28;83460;-73
2022/04/15 13:39:09;;;;;;;;;0.00;0.00;;;;;;;;1548176;28;83002;-75
2022/04/15 13:39:55;;;;;;;;;0.00;0.00;;;;;;;;1548400;28;83230;-79
2022/04/15 13:40:44;;;;;;;;;0.00;0.00;;;;;;;;1548276;28;83445;-75
2022/04/15 13:41:30;;;;;;;;;0.00;0.00;;;;;;;;1548111;28;83544;-78
2022/04/15 13:42:17;;;;;;;;;0.00;0.00;;;;;;;;1548088;28;83432;-78
2022/04/15 13:43:02;;;;;;;;;0.00;0.00;;;;;;;;1546980;28;83270;-78
2022/04/15 13:43:47;;;;;;;;;0.00;0.00;;;;;;;;1548354;28;83331;-79
2022/04/15 13:44:32;;;;;;;;;0.00;0.00;;;;;;;;1541525;28;83492;-79
2022/04/15 13:45:17;;;;;;;;;0.00;0.00;;;;;;;;1541535;28;83514;-78
2022/04/15 13:46:03;;;;;;;;;0.00;0.00;;;;;;;;1543734;28;83475;-78
2022/04/15 13:46:48;;;;;;;;;0.00;0.00;;;;;;;;1551066;28;83130;-79
2022/04/15 13:47:33;;;;;;;;;0.00;0.00;;;;;;;;1548149;28;83425;-79
2022/04/15 13:48:18;;;;;;;;;1.00;1.00;;;;;;;;1548135;28;83736;-79
2022/04/15 13:49:03;;;;;;;;;0.00;0.00;;;;;;;;1548184;28;83609;-79
2022/04/15 13:49:49;;;;;;;;;0.00;0.00;;;;;;;;1548304;28;84141;-79
2022/04/15 13:50:34;;;;;;;;;0.00;0.00;;;;;;;;1548221;28;83699;-79
2022/04/15 13:51:20;;;;;;;;;0.00;0.00;;;;;;;;1547884;28;83611;-79
2022/04/15 13:56:34;;;;;;;;;0.00;0.00;;;;;;;;1548135;28;83894;-79
2022/04/15 13:56:37;;;;;;;;;0.00;0.00;;;;;;;;1547719;28;83308;-79
2022/04/15 13:57:22;;;;;;;;;0.00;0.00;;;;;;;;1548163;28;83336;-79
2022/04/15 13:58:07;;;;;;;;;0.00;0.00;;;;;;;;1547257;28;83460;-80
2022/04/15 13:58:53;;;;;;;;;0.00;0.00;;;;;;;;1541491;28;86686;-80
2022/04/15 13:59:39;;;;;;;;;0.00;0.00;;;;;;;;1541596;28;83712;-80
2022/04/15 14:00:24;;;;;;;;;0.00;0.00;;;;;;;;1543745;28;83221;-79
2022/04/15 14:01:23;;;;;;;;;0.50;0.50;;;;;;;;1548119;28;83574;-80
2022/04/15 14:02:08;;;;;;;;;0.00;0.00;;;;;;;;1548001;28;84033;-79
2022/04/15 14:02:53;;;;;;;;;0.00;0.00;;;;;;;;1548271;28;83536;-80
2022/04/15 14:03:39;;;;;;;;;0.00;0.00;;;;;;;;1548187;28;83916;-79
2022/04/15 14:04:24;;;;;;;;;1.00;1.00;;;;;;;;1548062;28;83925;-80
2022/04/15 14:05:09;;;;;;;;;0.00;0.00;;;;;;;;1548092;28;83861;-79
2022/04/15 14:05:54;;;;;;;;;0.00;0.00;;;;;;;;1547894;28;83833;-79
2022/04/15 14:06:41;;;;;;;;;0.00;0.00;;;;;;;;1548200;28;83301;-79
2022/04/15 14:07:26;;;;;;;;;1.00;1.00;;;;;;;;1540689;28;86646;-79
2022/04/15 14:08:11;;;;;;;;;0.00;0.00;;;;;;;;1541375;28;83575;-79
2022/04/15 14:08:56;;;;;;;;;1.00;1.00;;;;;;;;1543788;28;83152;-79
2022/04/15 14:09:42;;;;;;;;;0.00;0.00;;;;;;;;1550769;28;83979;-79
2022/04/15 14:10:27;;;;;;;;;1.00;1.00;;;;;;;;1547486;28;85884;-79
2022/04/15 14:11:12;;;;;;;;;0.75;0.75;;;;;;;;1541325;28;86006;-79
2022/04/15 14:11:57;;;;;;;;;0.50;0.50;;;;;;;;1541616;28;84031;-80
2022/04/15 14:12:43;;;;;;;;;0.75;0.75;;;;;;;;1543167;28;84308;-80
2022/04/15 14:13:29;;;;;;;;;1.00;1.00;;;;;;;;1547955;28;84525;-79
2022/04/15 14:14:15;;;;;;;;;1.00;1.00;;;;;;;;1547912;28;83100;-79
2022/04/15 14:15:00;;;;;;;;;1.00;1.00;;;;;;;;1548108;28;83923;-79
2022/04/15 14:15:45;;;;;;;;;0.75;0.75;;;;;;;;1548058;28;84006;-79
2022/04/15 14:16:31;;;;;;;;;1.00;1.00;;;;;;;;1548038;28;83295;-80
2022/04/15 14:17:16;;;;;;;;;1.00;1.00;;;;;;;;1547948;28;84605;-79
2022/04/15 14:18:04;;;;;;;;;1.00;1.00;;;;;;;;1548196;28;82983;-79
2022/04/15 14:18:49;;;;;;;;;1.60;1.60;;;;;;;;1548222;28;83075;-79
2022/04/15 14:19:34;;;;;;;;;1.00;1.00;;;;;;;;1548032;28;83834;-79
2022/04/15 14:20:20;;;;;;;;;1.00;1.00;;;;;;;;1547723;28;83128;-79
2022/04/15 14:21:06;;;;;;;;;1.50;1.50;;;;;;;;1541232;28;86816;-79
2022/04/15 14:21:51;;;;;;;;;1.00;1.00;;;;;;;;1541362;28;83962;-78
2022/04/15 14:22:37;;;;;;;;;1.25;1.25;;;;;;;;1538659;28;86671;-79
2022/04/15 14:23:22;;;;;;;;;1.00;1.00;;;;;;;;1535281;28;83403;-78
2022/04/15 14:24:08;;;;;;;;;1.50;1.50;;;;;;;;1537618;28;83144;-78
2022/04/15 14:24:53;;;;;;;;;2.40;2.40;;;;;;;;1541867;28;83692;-79
2022/04/15 14:25:38;;;;;;;;;4.00;4.00;;;;;;;;1543942;28;84087;-80
2022/04/15 14:26:24;;;;;;;;;4.25;4.25;;;;;;;;1553659;28;83089;-79
2022/04/15 14:27:12;;;;;;;;;5.75;5.75;;;;;;;;1547939;28;83856;-79
2022/04/15 14:27:57;;;;;;;;;4.00;4.00;;;;;;;;1547678;28;84468;-79
2022/04/15 14:28:42;;;;;;;;;5.50;5.50;;;;;;;;1544574;28;87289;-84
2022/04/15 14:29:28;;;;;;;;;3.00;3.00;;;;;;;;1547385;28;83838;-78
2022/04/15 14:30:14;;;;;;;;;2.00;2.00;;;;;;;;1549863;28;83218;-80
2022/04/15 14:30:59;;;;;;;;;1.25;1.25;;;;;;;;1554305;28;84284;-79
2022/04/15 14:31:45;;;;;;;;;1.60;1.60;;;;;;;;1556482;28;83587;-79
2022/04/15 14:32:31;;;;;;;;;2.00;2.00;;;;;;;;1554090;28;83455;-79
2022/04/15 14:33:16;;;;;;;;;1.00;1.00;;;;;;;;1554087;28;83838;-79
2022/04/15 14:34:01;;;;;;;;;1.00;1.00;;;;;;;;1554329;28;83267;-79
2022/04/15 14:34:47;;;;;;;;;1.25;1.25;;;;;;;;1553900;28;83339;-78
2022/04/15 14:35:32;;;;;;;;;0.00;0.00;;;;;;;;1554229;28;83178;-79
2022/04/15 14:36:17;;;;;;;;;1.00;1.00;;;;;;;;1554227;28;83287;-78
2022/04/15 14:37:04;;;;;;;;;1.00;1.00;;;;;;;;1553106;28;82900;-78
2022/04/15 14:37:49;;;;;;;;;1.00;1.00;;;;;;;;1547894;28;83372;-78
2022/04/15 14:38:35;;;;;;;;;1.00;1.00;;;;;;;;1541258;28;83362;-79
2022/04/15 14:39:20;;;;;;;;;2.00;2.00;;;;;;;;1541291;28;83480;-78
2022/04/15 14:40:06;;;;;;;;;1.00;1.00;;;;;;;;1543660;28;83446;-79
2022/04/15 14:40:51;;;;;;;;;1.00;1.00;;;;;;;;1541359;28;85322;-79
2022/04/15 14:41:37;;;;;;;;;1.50;1.50;;;;;;;;1541215;28;83476;-79
2022/04/15 14:42:23;;;;;;;;;1.80;1.80;;;;;;;;1540618;28;83491;-79
2022/04/15 14:43:08;;;;;;;;;0.00;0.00;;;;;;;;1541840;28;83490;-79
2022/04/15 14:43:54;;;;;;;;;1.00;1.00;;;;;;;;1541917;28;83458;-79
2022/04/15 14:44:39;;;;;;;;;0.75;0.75;;;;;;;;1541778;28;83553;-80
2022/04/15 14:45:26;;;;;;;;;1.50;1.50;;;;;;;;1541828;28;83545;-79
2022/04/15 14:46:11;;;;;;;;;1.00;1.00;;;;;;;;1541895;28;83338;-79
2022/04/15 14:46:57;;;;;;;;;1.00;1.00;;;;;;;;1541890;28;83557;-80
2022/04/15 14:47:42;;;;;;;;;0.75;0.75;;;;;;;;1541536;28;83434;-73
2022/04/15 14:48:27;;;;;;;;;1.00;1.00;;;;;;;;1545152;28;83470;-73
2022/04/15 14:49:12;;;;;;;;;1.00;1.00;;;;;;;;1547719;28;83243;-73
2022/04/15 14:49:58;;;;;;;;;1.00;1.00;;;;;;;;1547955;28;83310;-73
2022/04/15 14:50:43;;;;;;;;;2.00;2.00;;;;;;;;1547847;28;83990;-73
2022/04/15 14:51:28;;;;;;;;;1.25;1.25;;;;;;;;1547796;28;83372;-73
2022/04/15 14:52:13;;;;;;;;;1.00;1.00;;;;;;;;1538676;28;83426;-74
2022/04/15 14:52:59;;;;;;;;;1.25;1.25;;;;;;;;1543985;28;83583;-74
2022/04/15 14:53:44;;;;;;;;;2.00;2.00;;;;;;;;1541176;28;83413;-71
2022/04/15 14:54:29;;;;;;;;;2.25;2.25;;;;;;;;1546803;28;83551;-71
2022/04/15 14:55:15;;;;;;;;;1.00;1.00;;;;;;;;1546993;28;83406;-80
2022/04/15 14:56:01;;;;;;;;;0.00;0.00;;;;;;;;1547564;28;83542;-75
2022/04/15 14:56:47;;;;;;;;;1.00;1.00;;;;;;;;1547563;28;83573;-74
2022/04/15 14:57:33;;;;;;;;;2.00;2.00;;;;;;;;1544654;28;83584;-74
2022/04/15 14:58:18;;;;;;;;;3.00;3.00;;;;;;;;1547484;28;83553;-75
2022/04/15 14:59:03;;;;;;;;;2.00;2.00;;;;;;;;1547952;28;83002;-73
2022/04/15 14:59:49;;;;;;;;;1.25;1.25;;;;;;;;1547845;28;83368;-72
2022/04/15 15:00:35;;;;;;;;;1.00;1.00;;;;;;;;1547871;28;83443;-74
2022/04/15 15:01:20;;;;;;;;;2.00;2.00;;;;;;;;1547839;28;83484;-73
2022/04/15 15:02:07;;;;;;;;;1.00;1.00;;;;;;;;1547708;28;83630;-73
2022/04/15 15:02:53;;;;;;;;;2.00;2.00;;;;;;;;1540997;28;83393;-70
2022/04/15 15:03:39;;;;;;;;;1.20;1.20;;;;;;;;1541172;28;83651;-70
2022/04/15 15:04:24;;;;;;;;;2.00;2.00;;;;;;;;1543290;28;83411;-70
2022/04/15 15:05:10;;;;;;;;;1.00;1.00;;;;;;;;1547651;28;83428;-71
2022/04/15 15:05:56;;;;;;;;;2.00;2.00;;;;;;;;1547847;28;83331;-71
2022/04/15 15:06:42;;;;;;;;;0.20;0.20;;;;;;;;1546814;28;83413;-71
2022/04/15 15:07:27;;;;;;;;;2.20;2.20;;;;;;;;1547176;28;83530;-71
2022/04/15 15:08:12;;;;;;;;;1.25;1.25;;;;;;;;1548072;28;83297;-72
2022/04/15 15:08:58;;;;;;;;;1.75;1.75;;;;;;;;1548986;28;83463;-72
2022/04/15 15:09:43;;;;;;;;;1.00;1.00;;;;;;;;1548819;28;83457;-72
2022/04/15 15:10:28;;;;;;;;;2.00;2.00;;;;;;;;1548716;28;83587;-71
2022/04/15 15:11:13;;;;;;;;;1.00;1.00;;;;;;;;1548808;28;83490;-72
2022/04/15 15:11:59;;;;;;;;;2.00;2.00;;;;;;;;1547679;28;84617;-71
2022/04/15 15:12:44;;;;;;;;;3.00;3.00;;;;;;;;1548421;28;83533;-72